Time;durP1;ratioP1;P1;durP2;ratioP2;P2;SDS_P1;SDS_P2;PMS_P1;PMS_P2;Temp;Humidity;BMP_temperature;BMP_pressure;BME280_temperature;BME280_humidity;BME280_pressure;Samples;Min_cycle;Max_cycle;Signal;HPM_P1;HPM_P2
2023/12/30 00:00:14;;;;;;;2.33;0.80;;;;;;;;;;524853;28;1470;-69
2023/12/30 00:00:29;;;;;;;1.85;0.77;;;;;;;;;;525600;28;1551;-69
2023/12/30 00:00:45;;;;;;;2.50;0.93;;;;;;;;;;523665;28;1838;-69
2023/12/30 00:01:00;;;;;;;3.50;0.90;;;;;;;;;;524119;28;1389;-69
2023/12/30 00:01:16;;;;;;;3.00;0.80;;;;;;;;;;524236;28;1433;-69
2023/12/30 00:01:31;;;;;;;2.40;0.90;;;;;;;;;;523592;28;1251;-69
2023/12/30 00:01:46;;;;;;;2.97;0.90;;;;;;;;;;524230;28;1454;-69
2023/12/30 00:02:04;;;;;;;2.97;0.90;;;;;;;;;;524005;28;1742;-69
2023/12/30 00:02:19;;;;;;;2.10;0.80;;;;;;;;;;523908;28;1389;-69
2023/12/30 00:02:34;;;;;;;1.67;0.77;;;;;;;;;;525088;28;1575;-69
2023/12/30 00:02:51;;;;;;;2.17;0.80;;;;;;;;;;523925;28;1579;-69
2023/12/30 00:03:06;;;;;;;3.28;0.90;;;;;;;;;;523881;28;1477;-69
2023/12/30 00:03:22;;;;;;;3.33;0.83;;;;;;;;;;523909;28;1489;-69
2023/12/30 00:03:37;;;;;;;2.70;0.70;;;;;;;;;;524506;28;1481;-68
2023/12/30 00:03:52;;;;;;;2.50;0.80;;;;;;;;;;523963;28;1288;-69
2023/12/30 00:04:07;;;;;;;2.30;0.83;;;;;;;;;;524375;28;1529;-68
2023/12/30 00:04:23;;;;;;;2.37;0.90;;;;;;;;;;524643;28;1528;-68
2023/12/30 00:04:38;;;;;;;2.13;0.90;;;;;;;;;;523923;28;1981;-69
2023/12/30 00:04:53;;;;;;;2.40;0.80;;;;;;;;;;524135;28;1501;-69
2023/12/30 00:05:09;;;;;;;2.40;0.80;;;;;;;;;;524813;28;1247;-68
2023/12/30 00:05:25;;;;;;;2.77;0.80;;;;;;;;;;525171;28;1351;-69
2023/12/30 00:05:40;;;;;;;2.95;0.90;;;;;;;;;;524785;28;1512;-69
2023/12/30 00:05:55;;;;;;;2.25;0.70;;;;;;;;;;524113;28;1568;-69
2023/12/30 00:06:11;;;;;;;1.93;0.73;;;;;;;;;;524631;28;1799;-69
2023/12/30 00:06:26;;;;;;;2.63;0.90;;;;;;;;;;524125;28;1406;-69
2023/12/30 00:06:43;;;;;;;3.53;0.90;;;;;;;;;;524598;28;1618;-68
2023/12/30 00:06:58;;;;;;;2.58;0.80;;;;;;;;;;524760;28;1575;-68
2023/12/30 00:07:13;;;;;;;2.60;0.80;;;;;;;;;;524782;28;1318;-69
2023/12/30 00:07:29;;;;;;;3.43;0.90;;;;;;;;;;524098;28;1516;-69
2023/12/30 00:07:45;;;;;;;3.53;0.90;;;;;;;;;;523770;28;1926;-68
2023/12/30 00:08:00;;;;;;;2.53;0.80;;;;;;;;;;523478;28;1600;-69
2023/12/30 00:08:16;;;;;;;2.58;0.80;;;;;;;;;;524465;28;1327;-68
2023/12/30 00:08:31;;;;;;;4.80;0.90;;;;;;;;;;523615;28;1592;-69
2023/12/30 00:08:46;;;;;;;3.88;0.90;;;;;;;;;;524048;28;1398;-69
2023/12/30 00:09:02;;;;;;;1.77;0.80;;;;;;;;;;523703;28;1639;-68
2023/12/30 00:09:17;;;;;;;2.80;0.87;;;;;;;;;;523621;28;1438;-69
2023/12/30 00:09:32;;;;;;;3.97;0.98;;;;;;;;;;524273;28;1852;-70
2023/12/30 00:09:47;;;;;;;2.90;0.87;;;;;;;;;;526460;28;1398;-68
2023/12/30 00:10:03;;;;;;;2.80;0.80;;;;;;;;;;527221;28;1299;-69
2023/12/30 00:10:18;;;;;;;4.10;0.90;;;;;;;;;;526249;28;1397;-69
2023/12/30 00:10:34;;;;;;;4.67;0.90;;;;;;;;;;525772;28;2090;-69
2023/12/30 00:10:49;;;;;;;3.88;0.85;;;;;;;;;;524759;28;1496;-69
2023/12/30 00:11:04;;;;;;;3.47;1.00;;;;;;;;;;524274;28;1917;-69
2023/12/30 00:11:20;;;;;;;2.57;1.00;;;;;;;;;;524578;28;1500;-69
2023/12/30 00:11:35;;;;;;;2.90;0.90;;;;;;;;;;523451;28;1387;-69
2023/12/30 00:11:50;;;;;;;3.25;0.88;;;;;;;;;;523543;28;1489;-68
2023/12/30 00:12:06;;;;;;;2.53;0.80;;;;;;;;;;524793;28;1188;-69
2023/12/30 00:12:21;;;;;;;3.63;0.80;;;;;;;;;;523982;28;1469;-68
2023/12/30 00:12:37;;;;;;;3.27;0.80;;;;;;;;;;524514;28;1821;-68
2023/12/30 00:12:52;;;;;;;2.30;0.73;;;;;;;;;;523672;28;1541;-68
2023/12/30 00:13:07;;;;;;;2.60;0.80;;;;;;;;;;524604;28;1300;-69
2023/12/30 00:13:22;;;;;;;2.80;0.83;;;;;;;;;;525943;28;1649;-69
2023/12/30 00:13:38;;;;;;;2.93;0.80;;;;;;;;;;526950;28;1442;-68
2023/12/30 00:13:53;;;;;;;3.03;0.95;;;;;;;;;;526175;28;1227;-69
2023/12/30 00:14:08;;;;;;;3.20;0.97;;;;;;;;;;523685;28;2258;-69
2023/12/30 00:14:24;;;;;;;3.00;0.80;;;;;;;;;;524410;28;1339;-69
2023/12/30 00:14:39;;;;;;;3.13;0.80;;;;;;;;;;524693;28;1383;-69
2023/12/30 00:14:54;;;;;;;3.10;0.90;;;;;;;;;;524126;28;1366;-69
2023/12/30 00:15:10;;;;;;;2.83;0.90;;;;;;;;;;523314;28;1501;-69
2023/12/30 00:15:25;;;;;;;3.70;0.83;;;;;;;;;;522193;28;1552;-69
2023/12/30 00:15:40;;;;;;;3.65;1.00;;;;;;;;;;522353;28;1985;-68
2023/12/30 00:15:55;;;;;;;2.97;0.90;;;;;;;;;;522912;28;1441;-69
2023/12/30 00:16:11;;;;;;;3.83;0.90;;;;;;;;;;524451;28;1575;-68
2023/12/30 00:16:27;;;;;;;3.65;0.90;;;;;;;;;;525315;28;1347;-69
2023/12/30 00:16:43;;;;;;;2.90;0.80;;;;;;;;;;524985;28;1220;-69
2023/12/30 00:16:58;;;;;;;3.00;0.98;;;;;;;;;;524736;28;1336;-68
2023/12/30 00:17:13;;;;;;;2.90;1.00;;;;;;;;;;525023;28;1410;-69
2023/12/30 00:17:29;;;;;;;3.00;1.00;;;;;;;;;;524708;28;1749;-69
2023/12/30 00:17:44;;;;;;;2.75;0.90;;;;;;;;;;525472;28;1501;-68
2023/12/30 00:17:59;;;;;;;3.40;0.90;;;;;;;;;;524367;28;1481;-69
2023/12/30 00:18:15;;;;;;;4.23;1.07;;;;;;;;;;524620;28;1537;-68
2023/12/30 00:18:30;;;;;;;3.92;1.15;;;;;;;;;;524285;28;1426;-69
2023/12/30 00:18:45;;;;;;;3.53;1.10;;;;;;;;;;524140;28;1248;-69
2023/12/30 00:19:01;;;;;;;3.40;1.10;;;;;;;;;;523672;28;1862;-69
2023/12/30 00:19:16;;;;;;;3.20;1.10;;;;;;;;;;522886;28;1391;-69
2023/12/30 00:19:34;;;;;;;2.93;1.00;;;;;;;;;;522503;28;1568;-68
2023/12/30 00:19:50;;;;;;;2.47;1.00;;;;;;;;;;522456;28;1372;-68
2023/12/30 00:20:05;;;;;;;2.15;1.00;;;;;;;;;;523002;28;1378;-69
2023/12/30 00:20:21;;;;;;;2.33;0.97;;;;;;;;;;522545;28;1562;-69
2023/12/30 00:20:36;;;;;;;3.25;1.00;;;;;;;;;;520031;28;2071;-69
2023/12/30 00:20:51;;;;;;;3.47;1.00;;;;;;;;;;521340;28;1523;-69
2023/12/30 00:21:07;;;;;;;3.27;0.90;;;;;;;;;;522186;28;1265;-69
2023/12/30 00:21:23;;;;;;;3.10;0.90;;;;;;;;;;523975;28;1802;-69
2023/12/30 00:21:38;;;;;;;3.60;0.95;;;;;;;;;;524912;28;1330;-69
2023/12/30 00:21:54;;;;;;;3.70;1.00;;;;;;;;;;523950;28;1544;-69
2023/12/30 00:22:09;;;;;;;3.40;0.93;;;;;;;;;;525118;28;1385;-69
2023/12/30 00:22:24;;;;;;;3.33;1.00;;;;;;;;;;525771;28;1523;-69
2023/12/30 00:22:39;;;;;;;4.00;1.10;;;;;;;;;;524962;28;1504;-69
2023/12/30 00:22:55;;;;;;;4.77;1.07;;;;;;;;;;523915;28;1527;-69
2023/12/30 00:23:10;;;;;;;4.32;0.93;;;;;;;;;;523548;28;1472;-69
2023/12/30 00:23:25;;;;;;;4.33;1.00;;;;;;;;;;523719;28;1568;-68
2023/12/30 00:23:43;;;;;;;3.97;0.90;;;;;;;;;;523249;28;1545;-69
2023/12/30 00:23:58;;;;;;;3.67;1.10;;;;;;;;;;523849;28;1559;-68
2023/12/30 00:24:13;;;;;;;3.40;1.20;;;;;;;;;;524744;28;1536;-69
2023/12/30 00:24:28;;;;;;;2.83;1.10;;;;;;;;;;521353;28;1498;-68
2023/12/30 00:24:44;;;;;;;3.10;1.00;;;;;;;;;;521549;28;1913;-68
2023/12/30 00:24:59;;;;;;;3.43;1.00;;;;;;;;;;522627;28;1542;-68
2023/12/30 00:25:16;;;;;;;2.73;1.00;;;;;;;;;;523236;28;1204;-69
2023/12/30 00:25:31;;;;;;;2.50;1.00;;;;;;;;;;523478;28;1179;-68
2023/12/30 00:25:47;;;;;;;3.27;1.10;;;;;;;;;;523088;28;1700;-68
2023/12/30 00:26:02;;;;;;;4.25;1.20;;;;;;;;;;522628;28;1255;-68
2023/12/30 00:26:24;;;;;;;5.57;1.43;;;;;;;;;;523615;28;1200;-69
2023/12/30 00:26:40;;;;;;;4.50;1.45;;;;;;;;;;523238;28;1156;-68
2023/12/30 00:26:55;;;;;;;3.03;1.10;;;;;;;;;;525582;28;1100;-68
2023/12/30 00:27:11;;;;;;;3.25;1.00;;;;;;;;;;525282;28;1361;-69
2023/12/30 00:27:26;;;;;;;4.33;1.00;;;;;;;;;;524166;28;1296;-69
2023/12/30 00:27:41;;;;;;;4.80;1.00;;;;;;;;;;525267;28;1180;-68
2023/12/30 00:27:57;;;;;;;4.60;1.00;;;;;;;;;;525228;28;1125;-68
2023/12/30 00:28:12;;;;;;;4.80;1.07;;;;;;;;;;523576;28;1006;-69
2023/12/30 00:28:27;;;;;;;4.47;1.10;;;;;;;;;;523647;28;1285;-68
2023/12/30 00:28:43;;;;;;;4.32;1.10;;;;;;;;;;525445;28;1302;-68
2023/12/30 00:28:58;;;;;;;5.83;1.20;;;;;;;;;;524295;28;1286;-69
2023/12/30 00:29:14;;;;;;;5.97;1.30;;;;;;;;;;522212;28;1161;-69
2023/12/30 00:29:29;;;;;;;3.67;1.10;;;;;;;;;;522385;28;1377;-69
2023/12/30 00:29:44;;;;;;;2.27;0.93;;;;;;;;;;521740;28;1219;-69
2023/12/30 00:30:00;;;;;;;2.83;0.90;;;;;;;;;;522623;28;1196;-68
2023/12/30 00:30:15;;;;;;;4.33;1.07;;;;;;;;;;521738;28;1204;-68
2023/12/30 00:30:30;;;;;;;4.60;1.03;;;;;;;;;;521530;28;1272;-68
2023/12/30 00:30:46;;;;;;;4.00;1.10;;;;;;;;;;521702;28;1224;-68
2023/12/30 00:31:01;;;;;;;4.20;1.17;;;;;;;;;;522505;28;1878;-68
2023/12/30 00:31:23;;;;;;;4.47;1.10;;;;;;;;;;523591;28;1809;-69
2023/12/30 00:31:39;;;;;;;4.35;1.20;;;;;;;;;;523490;28;1679;-68
2023/12/30 00:31:54;;;;;;;4.43;1.27;;;;;;;;;;525930;28;1071;-68
2023/12/30 00:32:09;;;;;;;4.30;1.10;;;;;;;;;;524955;28;1261;-68
2023/12/30 00:32:25;;;;;;;4.60;1.15;;;;;;;;;;525939;28;1151;-68
2023/12/30 00:32:40;;;;;;;4.57;1.20;;;;;;;;;;525827;28;1104;-68
2023/12/30 00:32:55;;;;;;;4.90;1.30;;;;;;;;;;525571;28;1422;-68
2023/12/30 00:33:10;;;;;;;5.18;1.27;;;;;;;;;;525949;28;1184;-69
2023/12/30 00:33:26;;;;;;;4.37;1.10;;;;;;;;;;525628;28;1199;-68
2023/12/30 00:33:41;;;;;;;4.00;1.13;;;;;;;;;;525840;28;945;-69
2023/12/30 00:33:58;;;;;;;4.30;1.30;;;;;;;;;;525429;28;1091;-68
2023/12/30 00:34:13;;;;;;;4.53;1.17;;;;;;;;;;523753;28;1267;-69
2023/12/30 00:34:32;;;;;;;3.80;1.02;;;;;;;;;;523994;28;1039;-69
2023/12/30 00:34:48;;;;;;;4.68;1.20;;;;;;;;;;521871;28;851;-68
2023/12/30 00:35:03;;;;;;;4.77;1.30;;;;;;;;;;523520;28;1532;-68
2023/12/30 00:35:18;;;;;;;3.55;1.10;;;;;;;;;;525421;28;1824;-68
2023/12/30 00:35:34;;;;;;;3.70;1.00;;;;;;;;;;525548;28;1082;-68
2023/12/30 00:35:49;;;;;;;4.13;1.10;;;;;;;;;;525193;28;1161;-69
2023/12/30 00:36:05;;;;;;;4.47;1.20;;;;;;;;;;525517;28;1198;-68
2023/12/30 00:36:20;;;;;;;4.60;1.20;;;;;;;;;;526488;28;1348;-68
2023/12/30 00:36:41;;;;;;;4.70;1.23;;;;;;;;;;527528;28;996;-68
2023/12/30 00:36:56;;;;;;;4.68;1.17;;;;;;;;;;526010;28;1036;-69
2023/12/30 00:37:13;;;;;;;4.10;1.13;;;;;;;;;;525734;28;1139;-69
2023/12/30 00:37:28;;;;;;;4.50;1.10;;;;;;;;;;525880;28;1038;-68
2023/12/30 00:37:44;;;;;;;4.65;1.10;;;;;;;;;;525895;28;1067;-68
2023/12/30 00:37:59;;;;;;;4.20;1.30;;;;;;;;;;525841;28;1043;-68
2023/12/30 00:38:14;;;;;;;4.43;1.10;;;;;;;;;;525833;28;969;-68
2023/12/30 00:38:29;;;;;;;3.78;0.93;;;;;;;;;;526031;28;818;-68
2023/12/30 00:38:45;;;;;;;4.57;1.17;;;;;;;;;;525961;28;1259;-68
2023/12/30 00:39:00;;;;;;;5.77;1.20;;;;;;;;;;525269;28;1056;-69
2023/12/30 00:39:16;;;;;;;4.60;1.10;;;;;;;;;;525633;28;925;-69
2023/12/30 00:39:31;;;;;;;3.43;1.10;;;;;;;;;;525842;28;1949;-69
2023/12/30 00:39:47;;;;;;;4.23;1.20;;;;;;;;;;528016;28;889;-69
2023/12/30 00:40:02;;;;;;;4.65;1.30;;;;;;;;;;528033;28;1102;-68
2023/12/30 00:40:18;;;;;;;5.05;1.30;;;;;;;;;;525964;28;1602;-68
2023/12/30 00:40:33;;;;;;;4.97;1.13;;;;;;;;;;525961;28;865;-68
2023/12/30 00:40:48;;;;;;;5.40;1.10;;;;;;;;;;523950;28;858;-68
2023/12/30 00:41:03;;;;;;;5.13;1.10;;;;;;;;;;523493;28;878;-69
2023/12/30 00:41:19;;;;;;;3.70;1.10;;;;;;;;;;523696;28;809;-69
2023/12/30 00:41:34;;;;;;;3.60;1.10;;;;;;;;;;523520;28;1222;-68
2023/12/30 00:41:49;;;;;;;3.57;1.20;;;;;;;;;;523638;28;817;-68
2023/12/30 00:42:05;;;;;;;4.27;1.17;;;;;;;;;;523952;28;1079;-68
2023/12/30 00:42:20;;;;;;;4.30;1.07;;;;;;;;;;523950;28;960;-69
2023/12/30 00:42:35;;;;;;;5.30;1.10;;;;;;;;;;524001;28;830;-68
2023/12/30 00:42:50;;;;;;;6.57;1.20;;;;;;;;;;526115;28;841;-69
2023/12/30 00:43:06;;;;;;;5.57;1.20;;;;;;;;;;525862;28;1072;-68
2023/12/30 00:43:21;;;;;;;5.47;1.03;;;;;;;;;;525568;28;1218;-69
2023/12/30 00:43:37;;;;;;;5.37;1.10;;;;;;;;;;525893;28;1620;-69
2023/12/30 00:43:52;;;;;;;4.78;1.20;;;;;;;;;;526024;28;877;-68
2023/12/30 00:44:08;;;;;;;5.30;1.13;;;;;;;;;;526174;28;1126;-68
2023/12/30 00:44:23;;;;;;;6.30;1.23;;;;;;;;;;527953;28;1138;-68
2023/12/30 00:44:39;;;;;;;5.22;1.20;;;;;;;;;;528028;28;1982;-68
2023/12/30 00:44:54;;;;;;;4.50;1.20;;;;;;;;;;527964;28;968;-69
2023/12/30 00:45:09;;;;;;;5.88;1.30;;;;;;;;;;527806;28;1094;-68
2023/12/30 00:45:25;;;;;;;6.57;1.20;;;;;;;;;;525467;28;1170;-69
2023/12/30 00:45:40;;;;;;;5.37;1.10;;;;;;;;;;525631;28;1368;-69
2023/12/30 00:45:55;;;;;;;4.30;1.00;;;;;;;;;;525848;28;921;-68
2023/12/30 00:46:11;;;;;;;4.77;1.27;;;;;;;;;;523717;28;1186;-69
2023/12/30 00:46:26;;;;;;;4.83;1.40;;;;;;;;;;524570;28;1078;-68
2023/12/30 00:46:41;;;;;;;5.07;1.23;;;;;;;;;;525575;28;984;-68
2023/12/30 00:46:56;;;;;;;5.05;1.20;;;;;;;;;;523229;28;1604;-69
2023/12/30 00:47:12;;;;;;;4.63;1.23;;;;;;;;;;519787;28;1138;-69
2023/12/30 00:47:27;;;;;;;5.13;1.20;;;;;;;;;;519697;28;759;-68
2023/12/30 00:47:42;;;;;;;6.00;1.38;;;;;;;;;;519837;28;854;-69
2023/12/30 00:47:57;;;;;;;5.83;1.30;;;;;;;;;;518153;28;1152;-69
2023/12/30 00:48:13;;;;;;;5.30;1.23;;;;;;;;;;520889;28;1833;-69
2023/12/30 00:48:29;;;;;;;4.70;1.40;;;;;;;;;;520419;28;867;-68
2023/12/30 00:48:44;;;;;;;4.53;1.30;;;;;;;;;;519905;28;783;-69
2023/12/30 00:48:59;;;;;;;4.82;1.23;;;;;;;;;;523839;28;1040;-68
2023/12/30 00:49:15;;;;;;;4.07;1.10;;;;;;;;;;525848;28;1155;-69
2023/12/30 00:49:30;;;;;;;4.32;1.38;;;;;;;;;;525852;28;904;-69
2023/12/30 00:49:45;;;;;;;6.13;1.60;;;;;;;;;;526011;28;944;-69
2023/12/30 00:50:01;;;;;;;6.23;1.43;;;;;;;;;;525185;28;1077;-69
2023/12/30 00:50:16;;;;;;;4.85;1.30;;;;;;;;;;524078;28;881;-69
2023/12/30 00:50:31;;;;;;;4.53;1.20;;;;;;;;;;525625;28;826;-69
2023/12/30 00:50:48;;;;;;;3.83;1.00;;;;;;;;;;526280;28;853;-69
2023/12/30 00:51:04;;;;;;;3.33;0.98;;;;;;;;;;525935;28;1042;-69
2023/12/30 00:51:19;;;;;;;4.40;1.10;;;;;;;;;;525933;28;818;-68
2023/12/30 00:51:37;;;;;;;4.63;1.23;;;;;;;;;;525992;28;893;-68
2023/12/30 00:51:53;;;;;;;3.20;1.10;;;;;;;;;;528037;28;1469;-68
2023/12/30 00:52:08;;;;;;;3.13;1.13;;;;;;;;;;527935;28;1141;-68
2023/12/30 00:52:23;;;;;;;4.00;1.27;;;;;;;;;;525832;28;1156;-69
2023/12/30 00:52:38;;;;;;;5.43;1.30;;;;;;;;;;525603;28;2020;-68
2023/12/30 00:52:54;;;;;;;6.07;1.30;;;;;;;;;;525985;28;816;-69
2023/12/30 00:53:09;;;;;;;5.03;1.30;;;;;;;;;;524050;28;1386;-69
2023/12/30 00:53:24;;;;;;;4.73;1.20;;;;;;;;;;525765;28;2178;-69
2023/12/30 00:53:40;;;;;;;5.53;1.30;;;;;;;;;;525835;28;1634;-68
2023/12/30 00:53:56;;;;;;;4.65;1.20;;;;;;;;;;525795;28;1631;-69
2023/12/30 00:54:11;;;;;;;3.92;1.10;;;;;;;;;;525899;28;837;-69
2023/12/30 00:54:26;;;;;;;4.60;1.33;;;;;;;;;;525840;28;1395;-68
2023/12/30 00:54:41;;;;;;;4.93;1.37;;;;;;;;;;526085;28;1042;-69
2023/12/30 00:54:57;;;;;;;5.87;1.27;;;;;;;;;;524987;28;2042;-69
2023/12/30 00:55:12;;;;;;;5.30;1.10;;;;;;;;;;525829;28;1079;-68
2023/12/30 00:55:27;;;;;;;4.30;1.03;;;;;;;;;;526297;28;1004;-69
2023/12/30 00:55:43;;;;;;;4.77;1.20;;;;;;;;;;526340;28;976;-69
2023/12/30 00:55:58;;;;;;;5.10;1.30;;;;;;;;;;525608;28;976;-69
2023/12/30 00:56:13;;;;;;;5.37;1.20;;;;;;;;;;522314;28;1627;-69
2023/12/30 00:56:29;;;;;;;5.97;1.23;;;;;;;;;;524293;28;1061;-69
2023/12/30 00:56:44;;;;;;;5.37;1.27;;;;;;;;;;523925;28;1010;-69
2023/12/30 00:56:59;;;;;;;5.15;1.25;;;;;;;;;;522449;28;1616;-68
2023/12/30 00:57:15;;;;;;;5.17;1.17;;;;;;;;;;524125;28;865;-68
2023/12/30 00:57:30;;;;;;;4.65;1.25;;;;;;;;;;524389;28;834;-68
2023/12/30 00:57:45;;;;;;;4.43;1.30;;;;;;;;;;524387;28;874;-69
2023/12/30 00:58:01;;;;;;;5.27;1.30;;;;;;;;;;523350;28;988;-69
2023/12/30 00:58:16;;;;;;;6.47;1.27;;;;;;;;;;524416;28;992;-69
2023/12/30 00:58:31;;;;;;;5.43;1.03;;;;;;;;;;524298;28;1024;-69
2023/12/30 00:58:47;;;;;;;4.47;0.97;;;;;;;;;;524376;28;862;-68
2023/12/30 00:59:02;;;;;;;5.10;1.20;;;;;;;;;;525411;28;1036;-68
2023/12/30 00:59:17;;;;;;;5.53;1.40;;;;;;;;;;526427;28;810;-69
2023/12/30 00:59:32;;;;;;;4.67;1.40;;;;;;;;;;526359;28;1245;-69
2023/12/30 00:59:48;;;;;;;5.03;1.40;;;;;;;;;;526465;28;872;-69
2023/12/30 01:00:04;;;;;;;5.25;1.30;;;;;;;;;;524891;28;1098;-68
2023/12/30 01:00:19;;;;;;;5.40;1.30;;;;;;;;;;524188;28;890;-68
2023/12/30 01:00:35;;;;;;;5.90;1.40;;;;;;;;;;524208;28;873;-69
2023/12/30 01:00:51;;;;;;;4.88;1.30;;;;;;;;;;524166;28;802;-69
2023/12/30 01:01:07;;;;;;;4.70;1.35;;;;;;;;;;524249;28;1112;-69
2023/12/30 01:01:22;;;;;;;6.63;1.50;;;;;;;;;;524290;28;858;-68
2023/12/30 01:01:38;;;;;;;6.07;1.43;;;;;;;;;;525980;28;1389;-68
2023/12/30 01:01:53;;;;;;;4.00;1.25;;;;;;;;;;526352;28;945;-68
2023/12/30 01:02:09;;;;;;;3.70;1.20;;;;;;;;;;526155;28;1138;-69
2023/12/30 01:02:24;;;;;;;3.85;1.20;;;;;;;;;;526172;28;977;-69
2023/12/30 01:02:39;;;;;;;4.50;1.20;;;;;;;;;;526366;28;912;-68
2023/12/30 01:02:55;;;;;;;5.27;1.30;;;;;;;;;;524010;28;1180;-69
2023/12/30 01:03:10;;;;;;;5.72;1.40;;;;;;;;;;523967;28;1223;-68
2023/12/30 01:03:25;;;;;;;6.17;1.50;;;;;;;;;;524331;28;948;-69
2023/12/30 01:03:40;;;;;;;5.90;1.43;;;;;;;;;;524239;28;956;-69
2023/12/30 01:03:56;;;;;;;5.53;1.42;;;;;;;;;;524122;28;1294;-68
2023/12/30 01:04:12;;;;;;;5.00;1.37;;;;;;;;;;523132;28;1731;-68
2023/12/30 01:04:27;;;;;;;4.43;1.30;;;;;;;;;;522847;28;1015;-69
2023/12/30 01:04:43;;;;;;;5.13;1.40;;;;;;;;;;523757;28;1920;-68
2023/12/30 01:04:58;;;;;;;6.30;1.20;;;;;;;;;;524662;28;949;-69
2023/12/30 01:05:13;;;;;;;5.73;1.10;;;;;;;;;;525457;28;1763;-69
2023/12/30 01:05:29;;;;;;;4.83;1.20;;;;;;;;;;526368;28;886;-69
2023/12/30 01:05:44;;;;;;;6.82;1.40;;;;;;;;;;525670;28;1725;-68
2023/12/30 01:06:00;;;;;;;7.07;1.50;;;;;;;;;;524139;28;941;-68
2023/12/30 01:06:15;;;;;;;6.22;1.40;;;;;;;;;;523832;28;838;-68
2023/12/30 01:06:30;;;;;;;6.23;1.30;;;;;;;;;;524444;28;873;-68
2023/12/30 01:06:45;;;;;;;5.13;1.20;;;;;;;;;;523211;28;1135;-68
2023/12/30 01:07:01;;;;;;;4.38;1.25;;;;;;;;;;522517;28;985;-69
2023/12/30 01:07:16;;;;;;;4.70;1.17;;;;;;;;;;527729;28;775;-69
2023/12/30 01:07:31;;;;;;;5.53;1.20;;;;;;;;;;527925;28;1281;-68
2023/12/30 01:07:47;;;;;;;4.97;1.30;;;;;;;;;;528338;28;1301;-68
2023/12/30 01:08:03;;;;;;;4.77;1.30;;;;;;;;;;526783;28;1479;-68
2023/12/30 01:08:18;;;;;;;4.65;1.20;;;;;;;;;;526243;28;1647;-68
2023/12/30 01:08:34;;;;;;;4.97;1.30;;;;;;;;;;526439;28;1666;-69
2023/12/30 01:08:49;;;;;;;5.83;1.47;;;;;;;;;;524366;28;869;-68
2023/12/30 01:09:04;;;;;;;5.47;1.47;;;;;;;;;;524215;28;1048;-68
2023/12/30 01:09:20;;;;;;;5.77;1.40;;;;;;;;;;524238;28;818;-68
2023/12/30 01:09:35;;;;;;;5.00;1.20;;;;;;;;;;524006;28;1208;-68
2023/12/30 01:09:50;;;;;;;3.73;1.07;;;;;;;;;;524413;28;909;-68
2023/12/30 01:10:06;;;;;;;5.37;1.20;;;;;;;;;;525951;28;1102;-68
2023/12/30 01:10:21;;;;;;;5.78;1.30;;;;;;;;;;526123;28;1378;-69
2023/12/30 01:10:37;;;;;;;5.05;1.30;;;;;;;;;;526320;28;865;-69
2023/12/30 01:10:53;;;;;;;5.80;1.30;;;;;;;;;;524220;28;1155;-69
2023/12/30 01:11:08;;;;;;;6.20;1.33;;;;;;;;;;522227;28;1210;-68
2023/12/30 01:11:23;;;;;;;6.03;1.40;;;;;;;;;;522289;28;823;-68
2023/12/30 01:11:39;;;;;;;5.20;1.40;;;;;;;;;;519547;28;1144;-69
2023/12/30 01:11:54;;;;;;;4.47;1.40;;;;;;;;;;519671;28;1755;-68
2023/12/30 01:12:09;;;;;;;4.50;1.30;;;;;;;;;;520902;28;1016;-68
2023/12/30 01:12:24;;;;;;;5.50;1.27;;;;;;;;;;522168;28;830;-68
2023/12/30 01:12:40;;;;;;;6.47;1.40;;;;;;;;;;524276;28;885;-68
2023/12/30 01:12:55;;;;;;;6.30;1.53;;;;;;;;;;526161;28;1051;-68
2023/12/30 01:13:10;;;;;;;5.50;1.40;;;;;;;;;;524493;28;806;-68
2023/12/30 01:13:26;;;;;;;4.53;1.27;;;;;;;;;;524366;28;981;-68
2023/12/30 01:13:41;;;;;;;4.47;1.30;;;;;;;;;;524528;28;783;-69
2023/12/30 01:13:56;;;;;;;5.50;1.20;;;;;;;;;;524374;28;1229;-69
2023/12/30 01:14:12;;;;;;;4.90;1.20;;;;;;;;;;525826;28;961;-69
2023/12/30 01:14:27;;;;;;;4.83;1.30;;;;;;;;;;526544;28;805;-69
2023/12/30 01:14:42;;;;;;;5.60;1.47;;;;;;;;;;524930;28;818;-68
2023/12/30 01:14:57;;;;;;;5.20;1.47;;;;;;;;;;527399;28;1159;-69
2023/12/30 01:15:13;;;;;;;6.05;1.40;;;;;;;;;;525913;28;834;-69
2023/12/30 01:15:28;;;;;;;5.50;1.30;;;;;;;;;;526243;28;894;-68
2023/12/30 01:15:44;;;;;;;5.17;1.20;;;;;;;;;;526221;28;1144;-69
2023/12/30 01:16:04;;;;;;;5.50;1.38;;;;;;;;;;526267;28;1115;-69
2023/12/30 01:16:19;;;;;;;5.05;1.45;;;;;;;;;;524261;28;861;-69
2023/12/30 01:16:36;;;;;;;5.77;1.33;;;;;;;;;;526039;28;904;-68
2023/12/30 01:16:51;;;;;;;6.07;1.40;;;;;;;;;;526236;28;873;-69
2023/12/30 01:17:06;;;;;;;5.80;1.47;;;;;;;;;;526348;28;1182;-68
2023/12/30 01:17:21;;;;;;;5.78;1.30;;;;;;;;;;524029;28;1289;-68
2023/12/30 01:17:37;;;;;;;5.07;1.23;;;;;;;;;;524379;28;933;-68
2023/12/30 01:17:52;;;;;;;5.17;1.23;;;;;;;;;;524285;28;1306;-68
2023/12/30 01:18:08;;;;;;;5.20;1.40;;;;;;;;;;524629;28;1187;-68
2023/12/30 01:18:24;;;;;;;5.45;1.52;;;;;;;;;;526397;28;1313;-68
2023/12/30 01:18:40;;;;;;;6.28;1.40;;;;;;;;;;526232;28;948;-69
2023/12/30 01:18:56;;;;;;;5.70;1.30;;;;;;;;;;524109;28;1155;-69
2023/12/30 01:19:11;;;;;;;4.93;1.38;;;;;;;;;;522119;28;1288;-68
2023/12/30 01:19:26;;;;;;;5.35;1.35;;;;;;;;;;521956;28;937;-69
2023/12/30 01:19:42;;;;;;;5.37;1.40;;;;;;;;;;522180;28;949;-68
2023/12/30 01:19:57;;;;;;;5.30;1.37;;;;;;;;;;522160;28;1151;-68
2023/12/30 01:20:12;;;;;;;5.57;1.30;;;;;;;;;;522615;28;1032;-68
2023/12/30 01:20:28;;;;;;;4.93;1.30;;;;;;;;;;524313;28;989;-68
2023/12/30 01:20:43;;;;;;;6.17;1.30;;;;;;;;;;523695;28;1830;-68
2023/12/30 01:20:59;;;;;;;5.40;1.25;;;;;;;;;;524517;28;992;-69
2023/12/30 01:21:14;;;;;;;4.47;1.20;;;;;;;;;;526187;28;1169;-69
2023/12/30 01:21:29;;;;;;;5.15;1.15;;;;;;;;;;526296;28;992;-69
2023/12/30 01:21:45;;;;;;;4.80;1.10;;;;;;;;;;525859;28;799;-69
2023/12/30 01:22:00;;;;;;;6.97;1.30;;;;;;;;;;525256;28;968;-69
2023/12/30 01:22:15;;;;;;;6.93;1.50;;;;;;;;;;524284;28;826;-69
2023/12/30 01:22:30;;;;;;;4.20;1.30;;;;;;;;;;524355;28;830;-69
2023/12/30 01:22:46;;;;;;;5.63;1.47;;;;;;;;;;526224;28;807;-69
2023/12/30 01:23:01;;;;;;;5.70;1.50;;;;;;;;;;526063;28;968;-69
2023/12/30 01:23:16;;;;;;;4.47;1.27;;;;;;;;;;526336;28;1008;-69
2023/12/30 01:23:31;;;;;;;5.50;1.40;;;;;;;;;;528456;28;1012;-69
2023/12/30 01:23:47;;;;;;;5.37;1.47;;;;;;;;;;528430;28;1043;-68
2023/12/30 01:24:02;;;;;;;6.10;1.63;;;;;;;;;;525442;28;1058;-68
2023/12/30 01:24:17;;;;;;;6.75;1.52;;;;;;;;;;524080;28;1328;-68
2023/12/30 01:24:33;;;;;;;7.03;1.30;;;;;;;;;;524328;28;854;-69
2023/12/30 01:24:48;;;;;;;7.07;1.30;;;;;;;;;;524018;28;1926;-68
2023/12/30 01:25:04;;;;;;;5.37;1.23;;;;;;;;;;523965;28;1448;-69
2023/12/30 01:25:19;;;;;;;5.03;1.33;;;;;;;;;;524671;28;1141;-69
2023/12/30 01:25:37;;;;;;;6.80;1.37;;;;;;;;;;526318;28;1424;-68
2023/12/30 01:25:53;;;;;;;6.65;1.40;;;;;;;;;;525362;28;1305;-69
2023/12/30 01:26:08;;;;;;;6.30;1.40;;;;;;;;;;524305;28;1032;-68
2023/12/30 01:26:23;;;;;;;6.03;1.40;;;;;;;;;;524287;28;945;-68
2023/12/30 01:26:39;;;;;;;6.53;1.40;;;;;;;;;;523930;28;1147;-68
2023/12/30 01:26:54;;;;;;;8.27;1.53;;;;;;;;;;524769;28;842;-68
2023/12/30 01:27:09;;;;;;;7.57;1.57;;;;;;;;;;525740;28;1241;-68
2023/12/30 01:27:24;;;;;;;6.40;1.43;;;;;;;;;;526387;28;905;-68
2023/12/30 01:27:40;;;;;;;6.90;1.40;;;;;;;;;;526414;28;909;-68
2023/12/30 01:27:56;;;;;;;7.30;1.30;;;;;;;;;;526397;28;1146;-68
2023/12/30 01:28:11;;;;;;;7.18;1.45;;;;;;;;;;528556;28;940;-68
2023/12/30 01:28:26;;;;;;;6.47;1.40;;;;;;;;;;528507;28;960;-68
2023/12/30 01:28:41;;;;;;;5.13;1.30;;;;;;;;;;528309;28;873;-69
2023/12/30 01:28:57;;;;;;;5.00;1.30;;;;;;;;;;526127;28;1249;-68
2023/12/30 01:29:12;;;;;;;5.40;1.30;;;;;;;;;;526037;28;1154;-68
2023/12/30 01:29:29;;;;;;;5.10;1.30;;;;;;;;;;526431;28;818;-68
2023/12/30 01:29:44;;;;;;;5.55;1.30;;;;;;;;;;526223;28;1403;-68
2023/12/30 01:29:59;;;;;;;5.88;1.50;;;;;;;;;;525252;28;1281;-69
2023/12/30 01:30:15;;;;;;;5.97;1.40;;;;;;;;;;522133;28;1391;-69
2023/12/30 01:30:30;;;;;;;5.53;1.23;;;;;;;;;;521864;28;1052;-69
2023/12/30 01:30:45;;;;;;;4.70;1.10;;;;;;;;;;522763;28;1820;-69
2023/12/30 01:31:00;;;;;;;4.27;1.20;;;;;;;;;;525269;28;973;-69
2023/12/30 01:31:17;;;;;;;4.77;1.30;;;;;;;;;;524742;28;802;-69
2023/12/30 01:31:34;;;;;;;5.15;1.30;;;;;;;;;;525916;28;882;-69
2023/12/30 01:31:49;;;;;;;4.72;1.38;;;;;;;;;;523847;28;1635;-69
2023/12/30 01:32:05;;;;;;;5.10;1.48;;;;;;;;;;522530;28;1266;-68
2023/12/30 01:32:20;;;;;;;5.47;1.37;;;;;;;;;;522195;28;1159;-69
2023/12/30 01:32:36;;;;;;;5.05;1.30;;;;;;;;;;522314;28;1617;-68
2023/12/30 01:32:51;;;;;;;4.67;1.30;;;;;;;;;;523049;28;1034;-69
2023/12/30 01:33:06;;;;;;;5.03;1.40;;;;;;;;;;524045;28;1285;-68
2023/12/30 01:33:21;;;;;;;4.67;1.37;;;;;;;;;;523970;28;1306;-69
2023/12/30 01:33:37;;;;;;;4.70;1.30;;;;;;;;;;524252;28;873;-69
2023/12/30 01:33:52;;;;;;;4.67;1.33;;;;;;;;;;524405;28;917;-69
2023/12/30 01:34:07;;;;;;;4.20;1.27;;;;;;;;;;526174;28;1162;-69
2023/12/30 01:34:23;;;;;;;4.93;1.40;;;;;;;;;;524119;28;1352;-69
2023/12/30 01:34:38;;;;;;;5.27;1.37;;;;;;;;;;524306;28;826;-68
2023/12/30 01:34:53;;;;;;;5.88;1.35;;;;;;;;;;524250;28;803;-68
2023/12/30 01:35:08;;;;;;;6.40;1.47;;;;;;;;;;522058;28;1182;-68
2023/12/30 01:35:24;;;;;;;6.43;1.40;;;;;;;;;;524126;28;803;-69
2023/12/30 01:35:39;;;;;;;5.60;1.35;;;;;;;;;;524120;28;985;-69
2023/12/30 01:35:57;;;;;;;4.70;1.33;;;;;;;;;;524323;28;866;-69
2023/12/30 01:36:13;;;;;;;4.45;1.30;;;;;;;;;;524324;28;842;-69
2023/12/30 01:36:28;;;;;;;4.70;1.37;;;;;;;;;;524423;28;847;-69